Impacts TAF Board INFO
FOR SITUATIONAL AWARENESS. NOT TO BE USED FOR FLIGHT PLANNING PURPOSES.
IDs:

KATL - Atlanta/Hartsfield-J, GA, US

Issued at 0152 UTC 12 Dec 2017
Updated at 0237 UTC 12 Dec 2017
Potential Impact None Slight Moderate High
Time<<12/15Z 12/16Z 12/17Z 12/18Z 12/19Z 12/20Z 12/21Z 12/22Z 12/23Z 13/00Z 13/01Z 13/02Z 13/03Z>>
Type PRVL PRVL PRVL PRVL PRVL PRVL PRVL PRVL PRVL PRVL PRVL PRVL PRVL
VIS >6 >6 >6 >6 >6 >6 >6 >6 >6 >6 >6 >6 >6
CIG 30 30 30 30 30 -- -- -- -- -- -- -- --
Cover BKN BKN BKN BKN BKN SCT SCT SCT SCT SKC SKC SKC SKC
FltCat MVFR MVFR MVFR MVFR MVFR VFR VFR VFR VFR VFR VFR VFR VFR
WX -- -- -- -- -- -- -- -- -- -- -- -- --
WDir 310 310 310 310 310 310 310 310 310 310 310 310 310
WSpd 17 17 17 17 17 17 17 17 17 12 12 12 12
WGst 30 30 30 30 30 28 28 28 28 18 18 18 18

Raw TAF
KATL 120152Z 1202/1306 22006KT P6SM FEW250
  FM120400 25007KT P6SM SCT250 WS020/27035KT
  FM121200 30012G20KT P6SM BKN200
  FM121400 31017G30KT P6SM BKN030
  FM122000 31017G28KT P6SM SCT030
  FM130000 31012G18KT P6SM SKC


METAR Board
Radar Display
Forecast Discussion

FOR SITUATIONAL AWARENESS. NOT TO BE USED FOR FLIGHT PLANNING PURPOSES.